Time;durP1;ratioP1;P1;durP2;ratioP2;P2;SDS_P1;SDS_P2;PMS_P1;PMS_P2;Temp;Humidity;BMP_temperature;BMP_pressure;BME280_temperature;BME280_humidity;BME280_pressure;Samples;Min_cycle;Max_cycle;Signal;HPM_P1;HPM_P2
2022/09/20 00:00:41;;;;;;;5.03;3.35;;;;;;;;;;5014151;28;20030;-63
2022/09/20 00:03:08;;;;;;;4.72;3.03;;;;;;;;;;5013642;28;20544;-63
2022/09/20 00:05:34;;;;;;;4.97;3.00;;;;;;;;;;5013838;28;20026;-63
2022/09/20 00:08:01;;;;;;;3.75;2.70;;;;;;;;;;5015741;28;20034;-63
2022/09/20 00:10:29;;;;;;;4.13;2.88;;;;;;;;;;5028067;28;20052;-63
2022/09/20 00:12:56;;;;;;;2.92;2.47;;;;;;;;;;5014016;28;20030;-63
2022/09/20 00:15:22;;;;;;;6.25;2.70;;;;;;;;;;5013979;28;20032;-63
2022/09/20 00:17:48;;;;;;;3.83;2.72;;;;;;;;;;5013203;28;20117;-63
2022/09/20 00:20:14;;;;;;;4.03;3.28;;;;;;;;;;5013773;28;20024;-63
2022/09/20 00:22:40;;;;;;;7.32;2.58;;;;;;;;;;5014015;28;20030;-63
2022/09/20 00:25:07;;;;;;;3.28;2.63;;;;;;;;;;5021213;28;20030;-63
2022/09/20 00:27:33;;;;;;;3.65;2.47;;;;;;;;;;5033503;28;20037;-63
2022/09/20 00:29:59;;;;;;;4.32;3.58;;;;;;;;;;5033313;28;20124;-63
2022/09/20 00:32:25;;;;;;;9.48;3.10;;;;;;;;;;5033648;28;20032;-63
2022/09/20 00:35:06;;;;;;;7.50;3.10;;;;;;;;;;5033026;28;20030;-63
2022/09/20 00:37:37;;;;;;;4.30;2.90;;;;;;;;;;5033484;28;20409;-63
2022/09/20 00:40:05;;;;;;;6.85;4.97;;;;;;;;;;5032798;28;20121;-63
2022/09/20 00:42:31;;;;;;;4.57;3.08;;;;;;;;;;5033030;28;20036;-63
2022/09/20 00:45:01;;;;;;;4.45;3.05;;;;;;;;;;5032777;28;20512;-63
2022/09/20 00:47:50;;;;;;;3.42;2.65;;;;;;;;;;5033200;28;20022;-63
2022/09/20 00:50:16;;;;;;;4.43;2.90;;;;;;;;;;5027564;28;20493;-63
2022/09/20 00:52:44;;;;;;;6.82;3.28;;;;;;;;;;5033066;28;20407;-63
2022/09/20 00:55:10;;;;;;;6.05;2.78;;;;;;;;;;5032783;28;20029;-63
2022/09/20 00:57:37;;;;;;;4.82;3.20;;;;;;;;;;5033114;28;20579;-63
2022/09/20 01:00:08;;;;;;;6.90;3.30;;;;;;;;;;5032859;28;20037;-63
2022/09/20 01:02:36;;;;;;;4.60;2.97;;;;;;;;;;5019523;28;20112;-63
2022/09/20 01:05:02;;;;;;;4.90;3.25;;;;;;;;;;5012557;28;20037;-63
2022/09/20 01:07:28;;;;;;;4.68;2.78;;;;;;;;;;5012832;28;20029;-63
2022/09/20 01:09:55;;;;;;;3.90;2.90;;;;;;;;;;5012743;28;20123;-63
2022/09/20 01:12:27;;;;;;;4.28;2.80;;;;;;;;;;5013096;28;20105;-63
2022/09/20 01:14:53;;;;;;;4.73;3.13;;;;;;;;;;5012912;28;20045;-63
2022/09/20 01:17:21;;;;;;;4.72;3.17;;;;;;;;;;5013003;28;20022;-63
2022/09/20 01:19:59;;;;;;;8.20;3.20;;;;;;;;;;5012039;28;20034;-63
2022/09/20 01:22:41;;;;;;;3.75;2.83;;;;;;;;;;5012945;28;20033;-63
2022/09/20 01:25:07;;;;;;;5.47;3.38;;;;;;;;;;5012715;28;20022;-63
2022/09/20 01:27:47;;;;;;;4.93;3.20;;;;;;;;;;5012722;28;20482;-63
2022/09/20 01:30:16;;;;;;;4.78;3.75;;;;;;;;;;4993145;28;20113;-63
2022/09/20 01:33:05;;;;;;;3.63;3.20;;;;;;;;;;4993008;28;20086;-63
2022/09/20 01:35:33;;;;;;;5.18;3.53;;;;;;;;;;4993095;28;20042;-63
2022/09/20 01:38:06;;;;;;;7.05;3.47;;;;;;;;;;5012032;28;20036;-63
2022/09/20 01:40:32;;;;;;;7.88;3.40;;;;;;;;;;5024976;28;20037;-63
2022/09/20 01:43:03;;;;;;;6.32;3.30;;;;;;;;;;4996590;28;20483;-63
2022/09/20 01:45:31;;;;;;;4.55;3.28;;;;;;;;;;5012797;28;20026;-63
2022/09/20 01:48:03;;;;;;;5.85;3.45;;;;;;;;;;5012363;28;20033;-63
2022/09/20 01:50:29;;;;;;;6.03;3.70;;;;;;;;;;5003807;28;20102;-63
2022/09/20 01:53:23;;;;;;;4.03;2.75;;;;;;;;;;4992791;28;20058;-63
2022/09/20 01:55:49;;;;;;;;;;;;;;;;;;4993365;28;20031;-63
2022/09/20 01:58:38;;;;;;;6.55;3.10;;;;;;;;;;4992640;28;19912;-63
2022/09/20 02:01:07;;;;;;;3.38;2.50;;;;;;;;;;4994285;28;20387;-63
2022/09/20 02:03:36;;;;;;;8.93;3.33;;;;;;;;;;5000667;28;20030;-63
2022/09/20 02:06:22;;;;;;;7.30;2.95;;;;;;;;;;5031709;28;20045;-63
2022/09/20 02:08:51;;;;;;;4.55;3.42;;;;;;;;;;5032157;28;20040;-63
2022/09/20 02:11:19;;;;;;;6.18;3.25;;;;;;;;;;5019480;28;20077;-63
2022/09/20 02:13:54;;;;;;;3.28;2.88;;;;;;;;;;5012348;28;20107;-63
2022/09/20 02:16:29;;;;;;;7.45;3.08;;;;;;;;;;5012063;28;20495;-63
2022/09/20 02:19:13;;;;;;;4.97;3.72;;;;;;;;;;5012521;28;20065;-63
2022/09/20 02:21:49;;;;;;;3.70;2.55;;;;;;;;;;5012111;28;20050;-63
2022/09/20 02:24:35;;;;;;;5.25;2.75;;;;;;;;;;5012054;28;20041;-63
2022/09/20 02:27:17;;;;;;;6.47;3.15;;;;;;;;;;5007874;28;20125;-63
2022/09/20 02:30:06;;;;;;;5.40;2.78;;;;;;;;;;5016096;28;20041;-63
2022/09/20 02:32:47;;;;;;;4.65;2.72;;;;;;;;;;5015641;28;20026;-63
2022/09/20 02:35:33;;;;;;;5.40;3.03;;;;;;;;;;5015389;28;20069;-63
2022/09/20 02:38:02;;;;;;;4.45;3.45;;;;;;;;;;5015805;28;20030;-63
2022/09/20 02:40:31;;;;;;;4.93;2.95;;;;;;;;;;5014388;28;20375;-63
2022/09/20 02:43:07;;;;;;;6.82;3.55;;;;;;;;;;5015930;28;20029;-63
2022/09/20 02:45:42;;;;;;;5.93;3.42;;;;;;;;;;5018807;28;20528;-63
2022/09/20 02:48:08;;;;;;;4.18;3.45;;;;;;;;;;5035253;28;20033;-63
2022/09/20 02:50:40;;;;;;;4.70;3.10;;;;;;;;;;5030670;28;20020;-63
2022/09/20 02:53:25;;;;;;;4.38;3.38;;;;;;;;;;5015558;28;20120;-63
2022/09/20 02:56:00;;;;;;;5.55;3.35;;;;;;;;;;5015583;28;20022;-63
2022/09/20 02:58:26;;;;;;;5.13;3.80;;;;;;;;;;5015370;28;20101;-63
2022/09/20 03:01:15;;;;;;;5.13;3.13;;;;;;;;;;5017032;28;20029;-63
2022/09/20 03:03:54;;;;;;;4.18;3.40;;;;;;;;;;5029671;28;20118;-63
2022/09/20 03:06:39;;;;;;;3.97;3.08;;;;;;;;;;5009077;28;20479;-63
2022/09/20 03:09:24;;;;;;;5.65;3.25;;;;;;;;;;4995615;28;20073;-63
2022/09/20 03:11:53;;;;;;;9.45;3.03;;;;;;;;;;5011961;28;20389;-63
2022/09/20 03:14:23;;;;;;;5.40;3.20;;;;;;;;;;5014886;28;20049;-63
2022/09/20 03:17:01;;;;;;;3.20;2.90;;;;;;;;;;5015158;28;20034;-63
2022/09/20 03:19:32;;;;;;;5.50;3.30;;;;;;;;;;5014767;28;20099;-63
2022/09/20 03:22:04;;;;;;;4.78;3.15;;;;;;;;;;5015015;28;20041;-63
2022/09/20 03:24:49;;;;;;;5.32;2.75;;;;;;;;;;5014852;28;20486;-63
2022/09/20 03:27:23;;;;;;;5.30;2.85;;;;;;;;;;4995381;28;20042;-63
2022/09/20 03:29:49;;;;;;;4.55;3.03;;;;;;;;;;4995137;28;20038;-63
2022/09/20 03:32:30;;;;;;;4.13;3.10;;;;;;;;;;4999170;28;20084;-63
2022/09/20 03:35:16;;;;;;;4.82;3.45;;;;;;;;;;5014742;28;20461;-63
2022/09/20 03:38:01;;;;;;;7.53;3.72;;;;;;;;;;5013638;28;20061;-63
2022/09/20 03:40:48;;;;;;;6.00;3.38;;;;;;;;;;4996035;28;20504;-63
2022/09/20 03:43:14;;;;;;;5.20;3.13;;;;;;;;;;4994839;28;20037;-63
2022/09/20 03:45:47;;;;;;;7.43;3.63;;;;;;;;;;4994967;28;20391;-63
2022/09/20 03:48:30;;;;;;;7.18;3.53;;;;;;;;;;5008097;28;20040;-63
2022/09/20 03:50:59;;;;;;;3.10;2.75;;;;;;;;;;5031434;28;20033;-63
2022/09/20 03:53:34;;;;;;;3.90;2.95;;;;;;;;;;5014200;28;20034;-63
2022/09/20 03:56:10;;;;;;;4.93;3.45;;;;;;;;;;5014530;28;20568;-63
2022/09/20 03:58:36;;;;;;;5.00;3.00;;;;;;;;;;5013959;28;20038;-63
2022/09/20 04:01:20;;;;;;;4.45;3.13;;;;;;;;;;5010482;28;20025;-63
2022/09/20 04:04:05;;;;;;;7.65;4.00;;;;;;;;;;5004269;28;20044;-63
2022/09/20 04:06:41;;;;;;;5.90;3.03;;;;;;;;;;5013995;28;20105;-63
2022/09/20 04:09:28;;;;;;;7.18;3.88;;;;;;;;;;5012328;28;20080;-63
2022/09/20 04:12:12;;;;;;;4.85;3.85;;;;;;;;;;5013208;28;20513;-63
2022/09/20 04:14:41;;;;;;;3.40;3.10;;;;;;;;;;5013329;28;20038;-63
2022/09/20 04:17:37;;;;;;;7.60;3.53;;;;;;;;;;5013953;28;20459;-63
2022/09/20 04:20:06;;;;;;;4.35;3.00;;;;;;;;;;5010483;28;20053;-63
2022/09/20 04:22:33;;;;;;;4.25;3.20;;;;;;;;;;5010317;28;20048;-63
2022/09/20 04:25:20;;;;;;;4.80;3.15;;;;;;;;;;5011859;28;20046;-63
2022/09/20 04:27:48;;;;;;;6.38;3.78;;;;;;;;;;5011480;28;20045;-63
2022/09/20 04:30:21;;;;;;;4.90;3.55;;;;;;;;;;5003586;28;20049;-63
2022/09/20 04:32:47;;;;;;;;;;;;;;;;;;5008561;28;20034;-63
2022/09/20 04:38:05;;;;;;;4.90;3.58;;;;;;;;;;5011564;28;20128;-63
2022/09/20 04:40:37;;;;;;;6.63;4.22;;;;;;;;;;5010823;28;20074;-63
2022/09/20 04:43:23;;;;;;;3.90;3.38;;;;;;;;;;5011153;28;20041;-63
2022/09/20 04:45:52;;;;;;;4.10;3.20;;;;;;;;;;5026229;28;20037;-63
2022/09/20 04:48:27;;;;;;;7.93;4.05;;;;;;;;;;5006435;28;20030;-63
2022/09/20 04:51:14;;;;;;;6.57;3.55;;;;;;;;;;5007775;28;20612;-63
2022/09/20 04:53:40;;;;;;;4.97;3.63;;;;;;;;;;5010552;28;20026;-63
2022/09/20 04:56:26;;;;;;;5.90;3.65;;;;;;;;;;5011421;28;20046;-63
2022/09/20 04:59:18;;;;;;;6.70;3.80;;;;;;;;;;4952501;28;20043;-63
2022/09/20 05:02:07;;;;;;;6.47;3.65;;;;;;;;;;4952628;28;20086;-63
2022/09/20 05:04:48;;;;;;;5.50;3.30;;;;;;;;;;4959986;28;20047;-63
2022/09/20 05:07:29;;;;;;;8.60;3.95;;;;;;;;;;4975403;28;20045;-63
2022/09/20 05:10:14;;;;;;;4.32;3.15;;;;;;;;;;4970198;28;20097;-63
2022/09/20 05:12:43;;;;;;;4.60;3.30;;;;;;;;;;4970290;28;20042;-63
2022/09/20 05:15:35;;;;;;;4.47;3.80;;;;;;;;;;4971550;28;20039;-64
2022/09/20 05:18:19;;;;;;;9.77;3.83;;;;;;;;;;4973718;28;20187;-63
2022/09/20 05:21:04;;;;;;;6.40;4.03;;;;;;;;;;4970616;28;20101;-63
2022/09/20 05:23:36;;;;;;;6.32;4.00;;;;;;;;;;4971079;28;20463;-63
2022/09/20 05:26:10;;;;;;;4.32;3.30;;;;;;;;;;4969822;28;20036;-63
2022/09/20 05:28:42;;;;;;;5.43;3.60;;;;;;;;;;4970921;28;20400;-63
2022/09/20 05:31:15;;;;;;;6.68;3.78;;;;;;;;;;4971084;28;20034;-63
2022/09/20 05:33:51;;;;;;;5.50;3.25;;;;;;;;;;4982330;28;20037;-64
2022/09/20 05:36:23;;;;;;;5.43;3.10;;;;;;;;;;4982834;28;20042;-64
2022/09/20 05:38:53;;;;;;;5.35;3.40;;;;;;;;;;4988782;28;20489;-64
2022/09/20 05:41:35;;;;;;;5.63;3.25;;;;;;;;;;4998447;28;20073;-64
2022/09/20 05:44:02;;;;;;;5.83;3.37;;;;;;;;;;5030794;28;20433;-63
2022/09/20 05:46:34;;;;;;;6.30;3.63;;;;;;;;;;5007727;28;20026;-64
2022/09/20 05:49:18;;;;;;;3.80;3.07;;;;;;;;;;5006160;28;20034;-64
2022/09/20 05:51:59;;;;;;;5.90;3.50;;;;;;;;;;5005434;28;20018;-64
2022/09/20 05:54:44;;;;;;;6.15;3.47;;;;;;;;;;5009267;28;20478;-64
2022/09/20 05:57:29;;;;;;;4.85;3.15;;;;;;;;;;5010668;28;20506;-64
2022/09/20 06:00:01;;;;;;;7.28;3.53;;;;;;;;;;5018347;28;20048;-64
2022/09/20 06:02:46;;;;;;;6.00;3.28;;;;;;;;;;5010804;28;20394;-64
2022/09/20 06:05:16;;;;;;;5.72;3.50;;;;;;;;;;5011320;28;20088;-64
2022/09/20 06:07:45;;;;;;;5.95;3.20;;;;;;;;;;5014703;28;20026;-64
2022/09/20 06:10:12;;;;;;;3.42;3.05;;;;;;;;;;5012321;28;20117;-64
2022/09/20 06:13:01;;;;;;;7.57;3.60;;;;;;;;;;5012771;28;20439;-64
2022/09/20 06:15:36;;;;;;;4.15;3.00;;;;;;;;;;5010836;28;20518;-64
2022/09/20 06:18:22;;;;;;;8.05;3.28;;;;;;;;;;5010440;28;20761;-64
2022/09/20 06:21:15;;;;;;;5.03;3.22;;;;;;;;;;4999413;28;20049;-64
2022/09/20 06:23:41;;;;;;;5.47;3.53;;;;;;;;;;4984311;28;20034;-64
2022/09/20 06:26:10;;;;;;;8.07;3.67;;;;;;;;;;4974297;28;20078;-64
2022/09/20 06:28:40;;;;;;;4.00;3.38;;;;;;;;;;4983639;28;20046;-65
2022/09/20 06:31:08;;;;;;;5.50;3.45;;;;;;;;;;4993131;28;20077;-65
2022/09/20 06:33:40;;;;;;;7.90;3.63;;;;;;;;;;4993780;28;20045;-65
2022/09/20 06:41:51;;;;;;;4.70;3.97;;;;;;;;;;4992842;28;20047;-65
2022/09/20 06:44:17;;;;;;;9.20;4.30;;;;;;;;;;4998455;28;20039;-65
2022/09/20 06:46:43;;;;;;;10.27;4.97;;;;;;;;;;4987182;28;20046;-65
2022/09/20 06:49:09;;;;;;;8.20;4.70;;;;;;;;;;4993127;28;20426;-65
2022/09/20 06:51:36;;;;;;;8.02;4.05;;;;;;;;;;4993384;28;20045;-64
2022/09/20 06:54:03;;;;;;;6.85;4.60;;;;;;;;;;4999712;28;20050;-64
2022/09/20 06:56:30;;;;;;;10.60;4.72;;;;;;;;;;4987945;28;20030;-64
2022/09/20 06:58:57;;;;;;;7.13;4.57;;;;;;;;;;5004291;28;20088;-64
2022/09/20 07:01:23;;;;;;;10.30;5.15;;;;;;;;;;5009733;28;20028;-64
2022/09/20 07:03:49;;;;;;;7.65;4.57;;;;;;;;;;5016216;28;20096;-64
2022/09/20 07:06:16;;;;;;;7.28;5.13;;;;;;;;;;5002017;28;20023;-64
2022/09/20 07:08:43;;;;;;;12.05;5.82;;;;;;;;;;5004177;28;20030;-64
2022/09/20 07:11:12;;;;;;;8.98;4.90;;;;;;;;;;5008077;28;20046;-65
2022/09/20 07:13:38;;;;;;;9.18;5.65;;;;;;;;;;5008804;28;20032;-65
2022/09/20 07:16:05;;;;;;;11.50;7.13;;;;;;;;;;5005481;28;20465;-65
2022/09/20 07:18:32;;;;;;;15.45;6.95;;;;;;;;;;5008029;28;20497;-65
2022/09/20 07:20:59;;;;;;;11.70;7.15;;;;;;;;;;5007180;28;20041;-65
2022/09/20 07:23:25;;;;;;;12.32;7.15;;;;;;;;;;5011155;28;20033;-65
2022/09/20 07:25:52;;;;;;;9.30;6.10;;;;;;;;;;5006364;28;20034;-65
2022/09/20 07:28:21;;;;;;;9.77;6.40;;;;;;;;;;5007497;28;20014;-65
2022/09/20 07:30:47;;;;;;;9.68;6.82;;;;;;;;;;5009530;28;20030;-65
2022/09/20 07:33:18;;;;;;;9.30;7.05;;;;;;;;;;5007450;28;20026;-65
2022/09/20 07:35:45;;;;;;;10.25;6.28;;;;;;;;;;5009066;28;20165;-65
2022/09/20 07:38:12;;;;;;;11.40;6.75;;;;;;;;;;5011544;28;20184;-65
2022/09/20 07:40:38;;;;;;;13.27;6.93;;;;;;;;;;5007680;28;20495;-65
2022/09/20 07:43:04;;;;;;;11.65;7.90;;;;;;;;;;5005239;28;20022;-65
2022/09/20 07:45:30;;;;;;;15.95;10.88;;;;;;;;;;5001933;28;20478;-65
2022/09/20 07:47:58;;;;;;;14.77;9.98;;;;;;;;;;5011708;28;20041;-65
2022/09/20 07:50:24;;;;;;;22.85;10.35;;;;;;;;;;5008602;28;20048;-65
2022/09/20 07:52:50;;;;;;;20.75;10.35;;;;;;;;;;5008065;28;20030;-65
2022/09/20 07:55:16;;;;;;;14.80;9.43;;;;;;;;;;5036242;28;20054;-65
2022/09/20 07:57:44;;;;;;;16.42;10.20;;;;;;;;;;5001177;28;20022;-65
2022/09/20 08:00:11;;;;;;;22.45;10.18;;;;;;;;;;5009004;28;20038;-65
2022/09/20 08:02:40;;;;;;;18.25;10.80;;;;;;;;;;5003112;28;20021;-65
2022/09/20 08:05:06;;;;;;;14.25;9.48;;;;;;;;;;4997141;28;20036;-65
2022/09/20 08:07:32;;;;;;;19.60;9.80;;;;;;;;;;5003086;28;20167;-65
2022/09/20 08:09:59;;;;;;;18.00;11.05;;;;;;;;;;5005970;28;20046;-65
2022/09/20 08:12:25;;;;;;;19.33;10.57;;;;;;;;;;5007446;28;20570;-65
2022/09/20 08:14:52;;;;;;;14.82;10.18;;;;;;;;;;5004258;28;20097;-65
2022/09/20 08:17:18;;;;;;;18.98;10.55;;;;;;;;;;5002438;28;20033;-65
2022/09/20 08:19:44;;;;;;;14.23;10.27;;;;;;;;;;5007325;28;20034;-65
2022/09/20 08:22:11;;;;;;;15.45;10.85;;;;;;;;;;5002431;28;20026;-65
2022/09/20 08:24:38;;;;;;;18.55;11.65;;;;;;;;;;5000268;28;20042;-65
2022/09/20 08:27:04;;;;;;;15.98;9.45;;;;;;;;;;5006359;28;20121;-65
2022/09/20 08:29:30;;;;;;;14.40;9.35;;;;;;;;;;5011391;28;20498;-65
2022/09/20 08:31:57;;;;;;;17.25;10.18;;;;;;;;;;5009621;28;20379;-65
2022/09/20 08:34:25;;;;;;;14.77;9.73;;;;;;;;;;5000396;28;20034;-65
2022/09/20 08:36:55;;;;;;;14.38;8.52;;;;;;;;;;5011915;28;20026;-65
2022/09/20 08:39:22;;;;;;;11.77;8.50;;;;;;;;;;5011176;28;20490;-65
2022/09/20 08:41:48;;;;;;;11.38;8.57;;;;;;;;;;5012079;28;20509;-65
2022/09/20 08:44:23;;;;;;;16.10;7.68;;;;;;;;;;5011934;28;20479;-65
2022/09/20 08:46:52;;;;;;;16.67;7.25;;;;;;;;;;5011035;28;20402;-65
2022/09/20 08:49:27;;;;;;;10.27;6.70;;;;;;;;;;5009156;28;20037;-65
2022/09/20 08:51:56;;;;;;;10.75;6.55;;;;;;;;;;5011457;28;20076;-65
2022/09/20 08:54:23;;;;;;;9.10;6.43;;;;;;;;;;4995364;28;20022;-65
2022/09/20 08:56:50;;;;;;;8.43;5.60;;;;;;;;;;5006839;28;20529;-65
2022/09/20 08:59:18;;;;;;;8.77;4.68;;;;;;;;;;5010712;28;20022;-65
2022/09/20 09:01:45;;;;;;;10.50;5.05;;;;;;;;;;5008925;28;20173;-65
2022/09/20 09:04:20;;;;;;;6.47;4.65;;;;;;;;;;5010367;28;20053;-65
2022/09/20 09:06:46;;;;;;;6.40;4.68;;;;;;;;;;5009712;28;20034;-65
2022/09/20 09:09:22;;;;;;;6.40;4.50;;;;;;;;;;5006555;28;20405;-65
2022/09/20 09:11:48;;;;;;;9.00;4.30;;;;;;;;;;5011821;28;20112;-65
2022/09/20 09:14:53;;;;;;;6.72;3.92;;;;;;;;;;5003691;28;20030;-65
2022/09/20 09:17:27;;;;;;;7.60;3.58;;;;;;;;;;5003856;28;20036;-65
2022/09/20 09:20:08;;;;;;;4.22;3.15;;;;;;;;;;5019639;28;20030;-65
2022/09/20 09:22:38;;;;;;;9.02;3.78;;;;;;;;;;5015000;28;20029;-65
2022/09/20 09:25:14;;;;;;;8.95;2.78;;;;;;;;;;5006174;28;20083;-65
2022/09/20 09:27:53;;;;;;;3.80;3.15;;;;;;;;;;5014897;28;20026;-65
2022/09/20 09:30:40;;;;;;;11.20;3.17;;;;;;;;;;5009142;28;20029;-65
2022/09/20 09:33:15;;;;;;;6.80;2.80;;;;;;;;;;5003038;28;20022;-65
2022/09/20 09:35:41;;;;;;;6.93;3.38;;;;;;;;;;5013203;28;20030;-65
2022/09/20 09:38:15;;;;;;;3.60;2.35;;;;;;;;;;5007700;28;20073;-65
2022/09/20 09:40:49;;;;;;;5.93;2.28;;;;;;;;;;5015585;28;20538;-65
2022/09/20 09:43:22;;;;;;;4.00;2.00;;;;;;;;;;5007363;28;20547;-65
2022/09/20 09:45:48;;;;;;;2.88;1.67;;;;;;;;;;4998181;28;20502;-65
2022/09/20 09:48:19;;;;;;;6.30;2.00;;;;;;;;;;5001845;28;20045;-65
2022/09/20 09:50:46;;;;;;;3.33;2.40;;;;;;;;;;5008802;28;20033;-65
2022/09/20 09:53:14;;;;;;;3.88;1.90;;;;;;;;;;5010956;28;20365;-65
2022/09/20 09:55:56;;;;;;;3.72;2.30;;;;;;;;;;5007801;28;20112;-65
2022/09/20 09:58:43;;;;;;;3.97;2.70;;;;;;;;;;5006228;28;20242;-65
2022/09/20 10:01:15;;;;;;;3.38;2.40;;;;;;;;;;4998660;28;20030;-65
2022/09/20 10:03:49;;;;;;;6.13;2.85;;;;;;;;;;4997854;28;20549;-65
2022/09/20 10:06:22;;;;;;;3.83;2.50;;;;;;;;;;4997673;28;20070;-65
2022/09/20 10:08:48;;;;;;;4.38;2.50;;;;;;;;;;4996782;28;20034;-65
2022/09/20 10:11:14;;;;;;;4.95;2.42;;;;;;;;;;5001946;28;20506;-65
2022/09/20 10:13:40;;;;;;;5.25;3.08;;;;;;;;;;5009159;28;20022;-65
2022/09/20 10:16:12;;;;;;;3.45;2.40;;;;;;;;;;5001849;28;20037;-65
2022/09/20 10:18:57;;;;;;;3.00;1.70;;;;;;;;;;4997498;28;20034;-65
2022/09/20 10:21:27;;;;;;;3.15;2.22;;;;;;;;;;5005950;28;20065;-66
2022/09/20 10:24:05;;;;;;;4.22;2.13;;;;;;;;;;4999705;28;20064;-66
2022/09/20 10:26:42;;;;;;;4.53;2.17;;;;;;;;;;5005201;28;20033;-66
2022/09/20 10:29:15;;;;;;;3.85;1.60;;;;;;;;;;5008878;28;20056;-65
2022/09/20 10:31:41;;;;;;;2.15;1.40;;;;;;;;;;4999305;28;20053;-65
2022/09/20 10:34:16;;;;;;;3.22;1.75;;;;;;;;;;5000391;28;20026;-65
2022/09/20 10:36:54;;;;;;;3.40;1.70;;;;;;;;;;5003753;28;20034;-65
2022/09/20 10:39:25;;;;;;;1.85;1.40;;;;;;;;;;5006067;28;20040;-65
2022/09/20 10:44:59;;;;;;;2.78;1.55;;;;;;;;;;5004043;28;20030;-65
2022/09/20 10:47:31;;;;;;;2.58;1.00;;;;;;;;;;5013067;28;20038;-65
2022/09/20 10:50:17;;;;;;;2.97;1.30;;;;;;;;;;5001609;28;20398;-65
2022/09/20 10:52:53;;;;;;;3.58;1.63;;;;;;;;;;4996620;28;20037;-65
2022/09/20 10:55:24;;;;;;;3.40;1.50;;;;;;;;;;5007655;28;20042;-65
2022/09/20 10:57:54;;;;;;;4.18;1.85;;;;;;;;;;5009899;28;20029;-65
2022/09/20 11:00:40;;;;;;;2.33;1.70;;;;;;;;;;5004774;28;20120;-65
2022/09/20 11:03:06;;;;;;;4.10;1.60;;;;;;;;;;5001520;28;20796;-65
2022/09/20 11:05:39;;;;;;;2.17;1.52;;;;;;;;;;5012159;28;20021;-65
2022/09/20 11:08:08;;;;;;;4.80;1.95;;;;;;;;;;5011894;28;20056;-65
2022/09/20 11:10:52;;;;;;;3.40;1.70;;;;;;;;;;5004924;28;20170;-66
2022/09/20 11:13:44;;;;;;;5.97;1.90;;;;;;;;;;5006629;28;20057;-66
2022/09/20 11:16:23;;;;;;;2.55;1.40;;;;;;;;;;5003110;28;20513;-65
2022/09/20 11:18:54;;;;;;;2.75;1.80;;;;;;;;;;5004721;28;20061;-65
2022/09/20 11:21:31;;;;;;;3.05;1.75;;;;;;;;;;5007707;28;20026;-65
2022/09/20 11:23:57;;;;;;;2.42;1.40;;;;;;;;;;5007569;28;20027;-65
2022/09/20 11:26:43;;;;;;;4.00;1.42;;;;;;;;;;5008734;28;20033;-65
2022/09/20 11:29:22;;;;;;;6.63;2.13;;;;;;;;;;5008348;28;20022;-65
2022/09/20 11:31:49;;;;;;;4.78;1.45;;;;;;;;;;5005119;28;20026;-65
2022/09/20 11:34:29;;;;;;;2.92;1.75;;;;;;;;;;5007909;28;20037;-65
2022/09/20 11:37:02;;;;;;;2.75;1.33;;;;;;;;;;5003822;28;20042;-65
2022/09/20 11:39:34;;;;;;;4.10;1.38;;;;;;;;;;5009269;28;20065;-65
2022/09/20 11:42:01;;;;;;;4.45;1.33;;;;;;;;;;5013585;28;20038;-65
2022/09/20 11:44:27;;;;;;;2.78;1.38;;;;;;;;;;5011848;28;20478;-65
2022/09/20 11:47:06;;;;;;;2.47;1.30;;;;;;;;;;5008162;28;20116;-65
2022/09/20 11:49:32;;;;;;;4.20;1.30;;;;;;;;;;5012397;28;20041;-65
2022/09/20 11:52:09;;;;;;;2.28;1.15;;;;;;;;;;5012130;28;20033;-64
2022/09/20 11:54:47;;;;;;;1.77;1.60;;;;;;;;;;5011883;28;20487;-64
2022/09/20 11:57:17;;;;;;;2.70;1.38;;;;;;;;;;5010222;28;20037;-64
2022/09/20 11:59:49;;;;;;;2.05;1.20;;;;;;;;;;5005985;28;20072;-65
2022/09/20 12:02:18;;;;;;;5.07;1.70;;;;;;;;;;5013543;28;20101;-66
2022/09/20 12:04:51;;;;;;;2.97;1.55;;;;;;;;;;5013227;28;20030;-66
2022/09/20 12:07:26;;;;;;;3.72;1.40;;;;;;;;;;5011078;28;20030;-66
2022/09/20 12:09:57;;;;;;;1.90;1.40;;;;;;;;;;5015339;28;20077;-66
2022/09/20 12:12:29;;;;;;;1.55;1.30;;;;;;;;;;5012726;28;20387;-65
2022/09/20 12:14:57;;;;;;;3.38;1.27;;;;;;;;;;5016845;28;20482;-65
2022/09/20 12:18:02;;;;;;;2.78;1.42;;;;;;;;;;5012411;28;20021;-65
2022/09/20 12:20:34;;;;;;;2.03;1.30;;;;;;;;;;5000722;28;20414;-66
2022/09/20 12:23:19;;;;;;;2.20;1.30;;;;;;;;;;5006726;28;20379;-66
2022/09/20 12:26:12;;;;;;;2.53;1.40;;;;;;;;;;4998506;28;20471;-66
2022/09/20 12:28:48;;;;;;;2.65;1.38;;;;;;;;;;4939927;29;20039;-66
2022/09/20 12:31:33;;;;;;;5.40;1.15;;;;;;;;;;4946737;29;20039;-66
2022/09/20 12:33:59;;;;;;;2.65;1.15;;;;;;;;;;4939034;29;20058;-66
2022/09/20 12:36:26;;;;;;;2.28;1.42;;;;;;;;;;4941628;29;20488;-66
2022/09/20 12:39:12;;;;;;;2.28;1.40;;;;;;;;;;4941606;29;20131;-66
2022/09/20 12:41:53;;;;;;;3.08;1.27;;;;;;;;;;4950711;29;20102;-66
2022/09/20 12:44:19;;;;;;;2.58;1.27;;;;;;;;;;4940850;29;20042;-66
2022/09/20 12:46:54;;;;;;;3.28;1.20;;;;;;;;;;4948218;29;20134;-66
2022/09/20 12:55:10;;;;;;;;;;;;;;;;;;4951667;29;20069;-66
2022/09/20 12:57:37;;;;;;;1.90;1.25;;;;;;;;;;4950964;29;19993;-66
2022/09/20 13:00:04;;;;;;;2.50;1.55;;;;;;;;;;4950030;29;20051;-66
2022/09/20 13:03:00;;;;;;;4.05;1.70;;;;;;;;;;4950965;28;20511;-66
2022/09/20 13:05:30;;;;;;;1.73;1.42;;;;;;;;;;4984905;28;20068;-66
2022/09/20 13:08:01;;;;;;;2.38;1.25;;;;;;;;;;5011207;28;20088;-66
2022/09/20 13:10:32;;;;;;;4.40;1.30;;;;;;;;;;5011103;28;20379;-66
2022/09/20 13:13:01;;;;;;;1.75;1.33;;;;;;;;;;5011330;28;20121;-66
2022/09/20 13:15:27;;;;;;;3.15;1.42;;;;;;;;;;5011448;28;20021;-66
2022/09/20 13:17:55;;;;;;;5.63;1.20;;;;;;;;;;5010891;28;20030;-66
2022/09/20 13:20:29;;;;;;;2.47;1.20;;;;;;;;;;5011426;28;20110;-65
2022/09/20 13:22:56;;;;;;;4.68;1.63;;;;;;;;;;5011013;28;20527;-65
2022/09/20 13:25:22;;;;;;;2.30;1.33;;;;;;;;;;5010834;28;20018;-65
2022/09/20 13:28:09;;;;;;;1.90;1.25;;;;;;;;;;5010551;28;20033;-65
2022/09/20 13:30:36;;;;;;;2.58;1.20;;;;;;;;;;5010675;28;20026;-65
2022/09/20 13:33:34;;;;;;;2.13;1.13;;;;;;;;;;5010273;28;20025;-66
2022/09/20 13:36:01;;;;;;;1.60;1.15;;;;;;;;;;5007196;28;20042;-66
2022/09/20 13:38:30;;;;;;;1.13;1.00;;;;;;;;;;5008240;28;20064;-65
2022/09/20 13:41:15;;;;;;;2.50;1.23;;;;;;;;;;5010511;28;20076;-65
2022/09/20 13:43:45;;;;;;;3.20;1.35;;;;;;;;;;5009269;28;20117;-65
2022/09/20 13:46:11;;;;;;;1.90;1.30;;;;;;;;;;5002005;28;20208;-65
2022/09/20 13:48:37;;;;;;;3.10;1.25;;;;;;;;;;5007775;28;20145;-65
2022/09/20 13:51:04;;;;;;;3.03;1.58;;;;;;;;;;5008652;28;20029;-65
2022/09/20 13:53:30;;;;;;;2.33;1.10;;;;;;;;;;5007222;28;20037;-65
2022/09/20 13:55:56;;;;;;;3.38;1.30;;;;;;;;;;5007426;28;20125;-65
2022/09/20 13:58:31;;;;;;;2.90;1.30;;;;;;;;;;5008305;28;20053;-65
2022/09/20 14:00:58;;;;;;;1.77;1.00;;;;;;;;;;5000519;28;20037;-65
2022/09/20 14:03:26;;;;;;;1.92;1.45;;;;;;;;;;5004692;28;20040;-63
2022/09/20 14:05:58;;;;;;;1.75;0.98;;;;;;;;;;5013752;28;20420;-63
2022/09/20 14:08:30;;;;;;;2.63;1.30;;;;;;;;;;5018941;28;20026;-63
2022/09/20 14:11:03;;;;;;;2.13;1.17;;;;;;;;;;5006749;28;20129;-63
2022/09/20 14:13:30;;;;;;;3.15;1.30;;;;;;;;;;5008870;28;20508;-63
2022/09/20 14:15:57;;;;;;;1.48;1.13;;;;;;;;;;5007651;28;20022;-63
2022/09/20 14:18:24;;;;;;;2.95;1.10;;;;;;;;;;5010957;28;20479;-63
2022/09/20 14:20:52;;;;;;;1.77;1.52;;;;;;;;;;5008810;28;20029;-63
2022/09/20 14:23:25;;;;;;;1.63;1.15;;;;;;;;;;5004517;28;20105;-63
2022/09/20 14:26:10;;;;;;;3.60;1.33;;;;;;;;;;5008723;28;21280;-63
2022/09/20 14:28:36;;;;;;;2.35;1.40;;;;;;;;;;5005331;28;20097;-63
2022/09/20 14:31:12;;;;;;;4.13;1.25;;;;;;;;;;5017594;28;20029;-63
2022/09/20 14:33:45;;;;;;;1.95;1.30;;;;;;;;;;5015290;28;20085;-63
2022/09/20 14:36:14;;;;;;;4.15;1.60;;;;;;;;;;5014916;28;20026;-63
2022/09/20 14:38:42;;;;;;;2.00;1.33;;;;;;;;;;5020023;28;20065;-63
2022/09/20 14:41:08;;;;;;;2.58;1.63;;;;;;;;;;5010675;28;20124;-63
2022/09/20 14:43:35;;;;;;;1.98;1.25;;;;;;;;;;5007983;28;20069;-63
2022/09/20 14:46:03;;;;;;;3.30;1.40;;;;;;;;;;5010376;28;20025;-63
2022/09/20 14:48:29;;;;;;;1.48;1.17;;;;;;;;;;5007302;28;20022;-63
2022/09/20 14:51:09;;;;;;;3.67;1.50;;;;;;;;;;5019630;28;20030;-63
2022/09/20 14:53:37;;;;;;;2.75;1.23;;;;;;;;;;5013545;28;20034;-63
2022/09/20 14:56:06;;;;;;;3.33;1.30;;;;;;;;;;5003434;28;20021;-63
2022/09/20 14:58:32;;;;;;;1.90;1.30;;;;;;;;;;5015043;28;20034;-63
2022/09/20 15:01:04;;;;;;;2.17;1.15;;;;;;;;;;5014958;28;20053;-63
2022/09/20 15:03:37;;;;;;;3.30;1.50;;;;;;;;;;5007600;28;20080;-64
2022/09/20 15:06:03;;;;;;;2.05;1.00;;;;;;;;;;5013069;28;20041;-63
2022/09/20 15:08:30;;;;;;;1.40;1.10;;;;;;;;;;5014587;28;20014;-64
2022/09/20 15:10:56;;;;;;;2.85;1.55;;;;;;;;;;5018350;28;20465;-64
2022/09/20 15:13:22;;;;;;;4.88;1.42;;;;;;;;;;5002792;28;20079;-63
2022/09/20 15:15:50;;;;;;;3.20;1.00;;;;;;;;;;5019053;28;20112;-63
2022/09/20 15:18:24;;;;;;;3.15;1.52;;;;;;;;;;5013353;28;20018;-63
2022/09/20 15:20:50;;;;;;;3.58;1.25;;;;;;;;;;5014234;28;20026;-63
2022/09/20 15:23:17;;;;;;;3.00;1.33;;;;;;;;;;5013536;28;20393;-63
2022/09/20 15:25:43;;;;;;;5.10;1.38;;;;;;;;;;5018966;28;20041;-63
2022/09/20 15:28:14;;;;;;;2.53;1.20;;;;;;;;;;5012502;28;20537;-63
2022/09/20 15:30:40;;;;;;;2.63;1.20;;;;;;;;;;5020771;28;20025;-63